createdAt,value
2019-01-12T19:21:53.578Z,19.71
2019-01-12T19:21:53.957Z,19.74
2019-01-12T19:21:54.320Z,19.74
2019-01-12T19:21:54.690Z,19.73
2019-01-12T19:21:55.059Z,19.74
2019-01-12T19:21:55.427Z,19.74
2019-01-12T19:21:55.797Z,19.74
2019-01-12T19:21:56.170Z,19.75
2019-01-12T19:21:56.538Z,19.75
2019-01-12T19:21:56.909Z,19.75
2019-01-12T19:21:57.283Z,19.75
2019-01-12T19:21:57.652Z,19.75
2019-01-12T19:21:58.024Z,19.75
2019-01-12T19:21:58.393Z,19.75
2019-01-12T19:21:58.762Z,19.75
2019-01-12T19:22:00.514Z,19.75
2019-01-12T19:22:00.516Z,19.75
2019-01-12T19:22:00.586Z,19.76
2019-01-12T19:22:00.591Z,19.75
2019-01-12T19:22:00.691Z,19.76
2019-01-12T19:22:00.997Z,19.76
2019-01-12T19:22:01.372Z,19.75
2019-01-12T19:22:01.739Z,19.76
2019-01-12T19:22:02.104Z,19.76
2019-01-12T19:22:02.479Z,19.77
2019-01-12T19:22:02.855Z,19.76
2019-01-12T19:22:03.229Z,19.77
2019-01-12T19:22:03.589Z,19.77
2019-01-12T19:22:03.966Z,19.77
2019-01-12T19:22:04.331Z,19.77
2019-01-12T19:22:04.703Z,19.77
2019-01-12T19:22:05.070Z,19.77
2019-01-12T19:22:05.491Z,19.78
2019-01-12T19:22:05.811Z,19.79
2019-01-12T19:22:06.183Z,19.79
2019-01-12T19:22:06.552Z,19.80
2019-01-12T19:22:06.920Z,19.80
2019-01-12T19:22:07.291Z,19.80
2019-01-12T19:22:07.664Z,19.80
2019-01-12T19:22:08.040Z,19.80
2019-01-12T19:22:08.409Z,19.80
2019-01-12T19:22:08.780Z,19.81
2019-01-12T19:22:09.149Z,19.80
2019-01-12T19:22:09.521Z,19.80
2019-01-12T19:22:09.895Z,19.81
2019-01-12T19:22:10.260Z,19.81
2019-01-12T19:22:10.633Z,19.81
2019-01-12T19:22:11.006Z,19.80
2019-01-12T19:22:11.374Z,19.81
2019-01-12T19:22:11.747Z,19.81
2019-01-12T19:22:12.119Z,19.81
2019-01-12T19:22:12.486Z,19.81
2019-01-12T19:22:12.857Z,19.82
2019-01-12T19:22:13.227Z,19.81
2019-01-12T19:22:13.593Z,19.81
2019-01-12T19:22:13.961Z,19.82
2019-01-12T19:22:14.334Z,19.82
2019-01-12T19:22:14.725Z,19.82
2019-01-12T19:22:15.072Z,19.82
2019-01-12T19:22:15.444Z,19.82
2019-01-12T19:22:15.819Z,19.83
2019-01-12T19:22:16.186Z,19.82
2019-01-12T19:22:16.557Z,19.83
2019-01-12T19:22:16.928Z,19.83
2019-01-12T19:22:17.300Z,19.83
2019-01-12T19:22:17.671Z,19.83
2019-01-12T19:22:18.039Z,19.83
2019-01-12T19:22:18.417Z,19.83
2019-01-12T19:22:18.789Z,19.83
2019-01-12T19:22:19.162Z,19.82
2019-01-12T19:22:19.534Z,19.76
2019-01-12T19:22:19.901Z,19.83
2019-01-12T19:22:20.273Z,19.83
2019-01-12T19:22:20.641Z,19.83
2019-01-12T19:22:21.013Z,19.83
2019-01-12T19:22:21.382Z,19.84
2019-01-12T19:22:21.751Z,19.83
2019-01-12T19:22:22.121Z,19.83
2019-01-12T19:22:22.498Z,19.84
2019-01-12T19:22:22.868Z,19.83
2019-01-12T19:22:23.240Z,19.84
2019-01-12T19:22:23.610Z,19.84
2019-01-12T19:22:23.981Z,19.84
2019-01-12T19:22:24.347Z,19.84
2019-01-12T19:22:24.719Z,19.84
2019-01-12T19:22:25.089Z,19.83
2019-01-12T19:22:25.461Z,19.84
2019-01-12T19:22:25.836Z,19.84
2019-01-12T19:22:26.202Z,19.84
2019-01-12T19:22:26.578Z,19.84
2019-01-12T19:22:26.949Z,19.84
2019-01-12T19:22:27.321Z,19.85
2019-01-12T19:22:27.691Z,19.85
2019-01-12T19:22:28.060Z,19.84
2019-01-12T19:22:28.429Z,19.84
2019-01-12T19:22:28.801Z,19.84
2019-01-12T19:22:29.170Z,19.85
2019-01-12T19:22:29.544Z,19.85
2019-01-12T19:22:29.917Z,19.84
2019-01-12T19:22:30.287Z,19.85
2019-01-12T19:22:30.656Z,19.85
2019-01-12T19:22:31.029Z,19.84
2019-01-12T19:22:31.445Z,19.84
2019-01-12T19:22:31.770Z,19.85
2019-01-12T19:22:32.158Z,19.85
2019-01-12T19:22:32.522Z,19.85
2019-01-12T19:22:32.891Z,19.85
2019-01-12T19:22:33.268Z,19.85
2019-01-12T19:22:33.640Z,19.85
2019-01-12T19:22:34.008Z,19.85
2019-01-12T19:22:34.378Z,19.85
2019-01-12T19:22:34.749Z,19.85
2019-01-12T19:22:35.120Z,19.86
2019-01-12T19:22:35.490Z,19.86
2019-01-12T19:22:35.863Z,19.85
2019-01-12T19:22:36.228Z,19.85
2019-01-12T19:22:36.604Z,19.86
2019-01-12T19:22:36.969Z,19.85
2019-01-12T19:22:37.340Z,19.85
2019-01-12T19:22:37.711Z,19.86
2019-01-12T19:22:38.083Z,19.86
2019-01-12T19:22:38.458Z,19.85
2019-01-12T19:22:38.826Z,19.86
2019-01-12T19:22:39.194Z,19.86
2019-01-12T19:22:39.568Z,19.86
2019-01-12T19:22:39.937Z,19.85
2019-01-12T19:22:40.308Z,19.86
2019-01-12T19:22:40.682Z,19.86
2019-01-12T19:22:41.051Z,19.86
2019-01-12T19:22:41.428Z,19.86
2019-01-12T19:22:41.793Z,19.86
2019-01-12T19:22:42.168Z,19.86
2019-01-12T19:22:42.533Z,19.86
2019-01-12T19:22:42.909Z,19.86
2019-01-12T19:22:43.277Z,19.86
2019-01-12T19:22:43.644Z,19.86
2019-01-12T19:22:44.017Z,19.86
2019-01-12T19:22:44.391Z,19.86
2019-01-12T19:22:44.759Z,19.86
2019-01-12T19:22:45.128Z,19.86
2019-01-12T19:22:45.494Z,19.86
2019-01-12T19:22:45.865Z,19.86
2019-01-12T19:22:46.242Z,19.87
2019-01-12T19:22:46.609Z,19.87
2019-01-12T19:22:46.977Z,19.87
2019-01-12T19:22:47.347Z,19.87
2019-01-12T19:22:47.726Z,19.87
2019-01-12T19:22:48.104Z,19.87
2019-01-12T19:22:48.499Z,19.87
2019-01-12T19:22:48.842Z,19.86
2019-01-12T19:22:49.213Z,19.87
2019-01-12T19:22:49.581Z,19.87
2019-01-12T19:22:49.952Z,19.87
2019-01-12T19:22:50.332Z,19.86
2019-01-12T19:22:50.702Z,19.87
2019-01-12T19:22:51.072Z,19.87
2019-01-12T19:22:51.443Z,19.87
2019-01-12T19:22:51.822Z,19.86
2019-01-12T19:22:52.185Z,19.87
2019-01-12T19:22:52.559Z,19.87
2019-01-12T19:22:52.925Z,19.86
2019-01-12T19:22:53.295Z,19.87
2019-01-12T19:22:53.669Z,19.87
2019-01-12T19:22:54.042Z,19.87
2019-01-12T19:22:54.404Z,19.87
2019-01-12T19:22:54.778Z,19.87
2019-01-12T19:22:55.150Z,19.88
2019-01-12T19:22:55.522Z,19.88
2019-01-12T19:22:55.892Z,19.87
2019-01-12T19:22:56.269Z,19.87
2019-01-12T19:22:56.633Z,19.88
2019-01-12T19:22:57.004Z,19.87
2019-01-12T19:22:57.375Z,19.87
2019-01-12T19:22:57.746Z,19.87
2019-01-12T19:22:58.120Z,19.88
2019-01-12T19:22:58.503Z,19.88
2019-01-12T19:22:58.869Z,19.88
2019-01-12T19:22:59.229Z,19.88
2019-01-12T19:22:59.607Z,19.88
2019-01-12T19:22:59.982Z,19.88
2019-01-12T19:23:00.347Z,19.87
2019-01-12T19:23:00.710Z,19.87
2019-01-12T19:23:01.084Z,19.88
2019-01-12T19:23:01.454Z,19.88
2019-01-12T19:23:01.828Z,19.88
2019-01-12T19:23:02.202Z,19.88
2019-01-12T19:23:02.567Z,19.88
2019-01-12T19:23:02.937Z,19.88
2019-01-12T19:23:03.309Z,19.87
2019-01-12T19:23:03.687Z,19.88
2019-01-12T19:23:04.057Z,19.88
2019-01-12T19:23:04.428Z,19.89
2019-01-12T19:23:04.796Z,19.88
2019-01-12T19:23:05.164Z,19.88
2019-01-12T19:23:05.537Z,19.88
2019-01-12T19:23:05.908Z,19.88
2019-01-12T19:23:06.278Z,19.88
2019-01-12T19:23:06.646Z,19.88
2019-01-12T19:23:07.014Z,19.88
2019-01-12T19:23:07.384Z,19.88
2019-01-12T19:23:07.761Z,19.89
2019-01-12T19:23:08.128Z,19.88
2019-01-12T19:23:08.501Z,19.89
2019-01-12T19:23:08.871Z,19.89
2019-01-12T19:23:09.240Z,19.88
2019-01-12T19:23:09.608Z,19.89
2019-01-12T19:23:09.975Z,19.88
2019-01-12T19:23:10.369Z,19.89
2019-01-12T19:23:10.743Z,19.88
2019-01-12T19:23:11.108Z,19.89
2019-01-12T19:23:11.480Z,19.89
2019-01-12T19:23:11.860Z,19.88
2019-01-12T19:23:12.223Z,19.88
2019-01-12T19:23:12.595Z,19.88
2019-01-12T19:23:12.966Z,19.88
2019-01-12T19:23:13.335Z,19.89
2019-01-12T19:23:13.705Z,19.89
2019-01-12T19:23:14.079Z,19.89
2019-01-12T19:23:14.443Z,19.88
2019-01-12T19:23:14.814Z,19.89
2019-01-12T19:23:15.182Z,19.88
2019-01-12T19:23:15.555Z,19.89
2019-01-12T19:23:15.923Z,19.88
2019-01-12T19:23:16.300Z,19.89
2019-01-12T19:23:16.682Z,19.89
2019-01-12T19:23:17.052Z,19.88
2019-01-12T19:23:17.424Z,19.89
2019-01-12T19:23:17.794Z,19.89
2019-01-12T19:23:18.164Z,19.88
2019-01-12T19:23:18.536Z,19.88
2019-01-12T19:23:18.909Z,19.88
2019-01-12T19:23:19.280Z,19.88
2019-01-12T19:23:19.645Z,19.88
2019-01-12T19:23:20.017Z,19.89
2019-01-12T19:23:20.389Z,19.89
2019-01-12T19:23:20.754Z,19.89
2019-01-12T19:23:21.126Z,19.88
2019-01-12T19:23:21.500Z,19.88
2019-01-12T19:23:21.868Z,19.88
2019-01-12T19:23:22.244Z,19.89
2019-01-12T19:23:22.619Z,19.89
2019-01-12T19:23:22.985Z,19.89
2019-01-12T19:23:23.351Z,19.89
2019-01-12T19:23:23.733Z,19.88
2019-01-12T19:23:24.103Z,19.88
2019-01-12T19:23:24.478Z,19.88
2019-01-12T19:23:24.848Z,19.90
2019-01-12T19:23:25.230Z,19.89
2019-01-12T19:23:25.592Z,19.89
2019-01-12T19:23:25.965Z,19.89
2019-01-12T19:23:26.334Z,19.89
2019-01-12T19:23:26.708Z,19.89
2019-01-12T19:23:27.074Z,19.89
2019-01-12T19:23:27.447Z,19.89
2019-01-12T19:23:27.816Z,19.89
2019-01-12T19:23:28.185Z,19.89
2019-01-12T19:23:28.556Z,19.90
2019-01-12T19:23:28.924Z,19.89
2019-01-12T19:23:29.296Z,19.90
2019-01-12T19:23:29.667Z,19.89
2019-01-12T19:23:30.059Z,19.89
2019-01-12T19:23:30.406Z,19.88
2019-01-12T19:23:30.778Z,19.90
2019-01-12T19:23:31.153Z,19.89
2019-01-12T19:23:31.527Z,19.90
2019-01-12T19:23:31.895Z,19.89
2019-01-12T19:23:32.268Z,19.90
2019-01-12T19:23:32.643Z,19.90
2019-01-12T19:23:33.009Z,19.90
2019-01-12T19:23:33.398Z,19.90
2019-01-12T19:23:33.755Z,19.90
2019-01-12T19:23:34.121Z,19.90
2019-01-12T19:23:34.491Z,19.90
2019-01-12T19:23:34.865Z,19.90
2019-01-12T19:23:35.233Z,19.90
2019-01-12T19:23:35.608Z,19.90
2019-01-12T19:23:35.982Z,19.89
2019-01-12T19:23:36.349Z,19.90
2019-01-12T19:23:36.716Z,19.90
2019-01-12T19:23:37.087Z,19.90
2019-01-12T19:23:37.462Z,19.90
2019-01-12T19:23:37.827Z,19.90
2019-01-12T19:23:38.201Z,19.90
2019-01-12T19:23:38.576Z,19.90
2019-01-12T19:23:38.941Z,19.90
2019-01-12T19:23:39.311Z,19.90
2019-01-12T19:23:39.684Z,19.90
2019-01-12T19:23:40.056Z,19.91
2019-01-12T19:23:40.425Z,19.90
2019-01-12T19:23:40.795Z,19.90
2019-01-12T19:23:41.166Z,19.91
2019-01-12T19:23:41.535Z,19.91
2019-01-12T19:23:41.908Z,19.90
2019-01-12T19:23:42.280Z,19.90
2019-01-12T19:23:42.647Z,19.90
2019-01-12T19:23:43.018Z,19.91
2019-01-12T19:23:43.388Z,19.90
2019-01-12T19:23:43.762Z,19.91
2019-01-12T19:23:44.130Z,19.91
2019-01-12T19:23:44.504Z,19.91
2019-01-12T19:23:44.925Z,19.91
2019-01-12T19:23:45.244Z,19.91
2019-01-12T19:23:45.612Z,19.92
2019-01-12T19:23:45.986Z,19.91
2019-01-12T19:23:46.352Z,19.91
2019-01-12T19:23:46.720Z,19.92
2019-01-12T19:23:47.096Z,19.91
2019-01-12T19:23:47.464Z,19.92
2019-01-12T19:23:47.837Z,19.92
2019-01-12T19:23:48.206Z,19.92
2019-01-12T19:23:48.576Z,19.93
2019-01-12T19:23:48.945Z,19.92
2019-01-12T19:23:49.316Z,19.93
2019-01-12T19:23:49.688Z,19.93
2019-01-12T19:23:50.055Z,19.93
2019-01-12T19:23:50.429Z,19.93
2019-01-12T19:23:50.800Z,19.92
2019-01-12T19:23:51.170Z,19.93
2019-01-12T19:23:51.540Z,19.93
2019-01-12T19:23:51.911Z,19.94
2019-01-12T19:23:52.282Z,19.93
2019-01-12T19:23:52.656Z,19.94
2019-01-12T19:23:53.022Z,19.94
2019-01-12T19:23:53.395Z,19.94
2019-01-12T19:23:53.766Z,19.94
2019-01-12T19:23:54.143Z,19.94
2019-01-12T19:23:54.513Z,19.95
2019-01-12T19:23:54.882Z,19.94
2019-01-12T19:23:55.256Z,19.95
2019-01-12T19:23:55.624Z,19.95
2019-01-12T19:23:55.991Z,19.96
2019-01-12T19:23:56.363Z,19.96
2019-01-12T19:23:56.732Z,19.95
2019-01-12T19:23:57.102Z,19.96
2019-01-12T19:23:57.474Z,19.97
2019-01-12T19:23:57.845Z,19.97
2019-01-12T19:23:58.214Z,20.00
2019-01-12T19:23:58.587Z,20.01
2019-01-12T19:23:58.959Z,20.02
2019-01-12T19:23:59.326Z,20.02
2019-01-12T19:23:59.701Z,20.02
2019-01-12T19:24:00.064Z,20.04
2019-01-12T19:24:00.441Z,20.05
2019-01-12T19:24:00.816Z,20.05
2019-01-12T19:24:01.189Z,20.05
2019-01-12T19:24:01.557Z,20.06
2019-01-12T19:24:01.928Z,20.06
2019-01-12T19:24:02.302Z,20.06
2019-01-12T19:24:02.667Z,20.07
2019-01-12T19:24:03.037Z,20.08
2019-01-12T19:24:03.412Z,20.07
2019-01-12T19:24:03.782Z,20.08
2019-01-12T19:24:04.149Z,20.09
2019-01-12T19:24:04.521Z,20.10
2019-01-12T19:24:04.901Z,20.10
2019-01-12T19:24:05.275Z,20.09
2019-01-12T19:24:05.639Z,20.10
2019-01-12T19:24:06.010Z,20.11
2019-01-12T19:24:06.380Z,20.11
2019-01-12T19:24:06.756Z,20.12
2019-01-12T19:24:07.122Z,20.13
2019-01-12T19:24:07.494Z,20.13
2019-01-12T19:24:07.869Z,20.14
2019-01-12T19:24:08.239Z,20.14
2019-01-12T19:24:08.607Z,20.14
2019-01-12T19:24:08.981Z,20.15
2019-01-12T19:24:09.347Z,20.15
2019-01-12T19:24:09.716Z,20.16
2019-01-12T19:24:10.090Z,20.17
2019-01-12T19:24:10.468Z,20.17
2019-01-12T19:24:10.834Z,20.18
2019-01-12T19:24:11.201Z,20.19
2019-01-12T19:24:11.575Z,20.20
2019-01-12T19:24:11.945Z,20.20
2019-01-12T19:24:12.314Z,20.21
2019-01-12T19:24:12.685Z,20.21
2019-01-12T19:24:13.059Z,20.21
2019-01-12T19:24:13.434Z,20.22
2019-01-12T19:24:13.799Z,20.22
2019-01-12T19:24:14.167Z,20.21
2019-01-12T19:24:14.540Z,20.22
2019-01-12T19:24:14.908Z,20.22
2019-01-12T19:24:15.279Z,20.22
2019-01-12T19:24:15.653Z,20.23
2019-01-12T19:24:16.027Z,20.23
2019-01-12T19:24:16.390Z,20.23
2019-01-12T19:24:16.762Z,20.23
2019-01-12T19:24:17.145Z,20.22
2019-01-12T19:24:17.502Z,20.23
2019-01-12T19:24:17.872Z,20.23
2019-01-12T19:24:18.241Z,20.23
2019-01-12T19:24:18.618Z,20.23
2019-01-12T19:24:18.982Z,20.23
2019-01-12T19:24:19.357Z,20.23
2019-01-12T19:24:19.727Z,20.24
2019-01-12T19:24:20.096Z,20.24
2019-01-12T19:24:20.467Z,20.24
2019-01-12T19:24:20.843Z,20.25
2019-01-12T19:24:21.211Z,20.25
2019-01-12T19:24:21.580Z,20.24
2019-01-12T19:24:21.951Z,20.25
2019-01-12T19:24:22.321Z,20.25
2019-01-12T19:24:22.701Z,20.25
2019-01-12T19:24:23.064Z,20.25
2019-01-12T19:24:23.435Z,20.26
2019-01-12T19:24:23.805Z,20.25
2019-01-12T19:24:24.179Z,20.25
2019-01-12T19:24:24.616Z,20.26
2019-01-12T19:24:24.919Z,20.26
2019-01-12T19:24:25.306Z,20.26
2019-01-12T19:24:25.674Z,20.26
2019-01-12T19:24:26.052Z,20.26
2019-01-12T19:24:26.414Z,20.27
2019-01-12T19:24:26.781Z,20.28
2019-01-12T19:24:27.156Z,20.27
2019-01-12T19:24:27.523Z,20.27
2019-01-12T19:24:27.897Z,20.27
2019-01-12T19:24:28.265Z,20.27
2019-01-12T19:24:28.642Z,20.28
2019-01-12T19:24:29.005Z,20.28
2019-01-12T19:24:29.376Z,20.27
2019-01-12T19:24:29.761Z,20.27
2019-01-12T19:24:30.130Z,20.28
2019-01-12T19:24:30.505Z,20.28
2019-01-12T19:24:30.871Z,20.28
2019-01-12T19:24:31.247Z,20.29
2019-01-12T19:24:31.616Z,20.28
2019-01-12T19:24:31.983Z,20.28
2019-01-12T19:24:32.353Z,20.29
2019-01-12T19:24:32.730Z,20.29
2019-01-12T19:24:33.104Z,20.29
2019-01-12T19:24:33.471Z,20.29
2019-01-12T19:24:33.879Z,20.29
2019-01-12T19:24:34.251Z,20.30
2019-01-12T19:24:34.619Z,20.30
2019-01-12T19:24:34.994Z,20.29
2019-01-12T19:24:35.361Z,20.30
2019-01-12T19:24:35.731Z,20.31
2019-01-12T19:24:36.111Z,20.31
2019-01-12T19:24:36.476Z,20.30
2019-01-12T19:24:36.847Z,20.31
2019-01-12T19:24:37.217Z,20.31
2019-01-12T19:24:37.588Z,20.32
2019-01-12T19:24:37.959Z,20.32
2019-01-12T19:24:38.337Z,20.32
2019-01-12T19:24:38.710Z,20.32
2019-01-12T19:24:39.082Z,20.32
2019-01-12T19:24:39.450Z,20.32
2019-01-12T19:24:39.818Z,20.33
2019-01-12T19:24:40.191Z,20.33
2019-01-12T19:24:40.565Z,20.33
2019-01-12T19:24:40.940Z,20.33
2019-01-12T19:24:41.306Z,20.34
2019-01-12T19:24:41.680Z,20.33
2019-01-12T19:24:42.049Z,20.33
2019-01-12T19:24:42.419Z,20.34
2019-01-12T19:24:42.790Z,20.34
2019-01-12T19:24:43.162Z,20.34
2019-01-12T19:24:43.532Z,20.33
2019-01-12T19:24:43.902Z,20.34
2019-01-12T19:24:44.271Z,20.34
2019-01-12T19:24:44.644Z,20.34
2019-01-12T19:24:45.014Z,20.34
2019-01-12T19:24:45.385Z,20.34
2019-01-12T19:24:45.757Z,20.35
2019-01-12T19:24:46.126Z,20.35
2019-01-12T19:24:46.497Z,20.35
2019-01-12T19:24:46.865Z,20.35
2019-01-12T19:24:47.235Z,20.35
2019-01-12T19:24:47.606Z,20.35
2019-01-12T19:24:47.974Z,20.35
2019-01-12T19:24:48.345Z,20.36
2019-01-12T19:24:48.717Z,20.36
2019-01-12T19:24:49.084Z,20.36
2019-01-12T19:24:49.456Z,20.36
2019-01-12T19:24:49.826Z,20.36
2019-01-12T19:24:50.203Z,20.36
2019-01-12T19:24:50.570Z,20.37
2019-01-12T19:24:50.938Z,20.35
2019-01-12T19:24:51.306Z,20.37
2019-01-12T19:24:51.682Z,20.36
2019-01-12T19:24:52.049Z,20.36
2019-01-12T19:24:52.421Z,20.37
2019-01-12T19:24:52.789Z,20.37
2019-01-12T19:24:53.161Z,20.36
2019-01-12T19:24:53.534Z,20.37
2019-01-12T19:24:53.905Z,20.37
2019-01-12T19:24:54.275Z,20.37
2019-01-12T19:24:54.645Z,20.37
2019-01-12T19:24:55.024Z,20.37
2019-01-12T19:24:55.399Z,20.37
2019-01-12T19:24:55.775Z,20.37
2019-01-12T19:24:56.137Z,20.38
2019-01-12T19:24:56.512Z,20.38
2019-01-12T19:24:56.881Z,20.38
2019-01-12T19:24:57.250Z,20.38
2019-01-12T19:24:57.620Z,20.39
2019-01-12T19:24:57.997Z,20.38
2019-01-12T19:24:58.365Z,20.38
2019-01-12T19:24:58.732Z,20.38
2019-01-12T19:24:59.101Z,20.39
2019-01-12T19:24:59.490Z,20.39
2019-01-12T19:24:59.846Z,20.39
2019-01-12T19:25:00.218Z,20.38
2019-01-12T19:25:00.589Z,20.39
2019-01-12T19:25:00.958Z,20.38
2019-01-12T19:25:01.328Z,20.39
2019-01-12T19:25:01.701Z,20.39
2019-01-12T19:25:02.070Z,20.39
2019-01-12T19:25:02.444Z,20.39
2019-01-12T19:25:02.815Z,20.39
2019-01-12T19:25:03.185Z,20.39
2019-01-12T19:25:03.553Z,20.40
2019-01-12T19:25:03.925Z,20.39
2019-01-12T19:25:04.295Z,20.39
2019-01-12T19:25:04.669Z,20.39
2019-01-12T19:25:05.046Z,20.39
2019-01-12T19:25:05.411Z,20.39
2019-01-12T19:25:05.792Z,20.39
2019-01-12T19:25:06.162Z,20.39
2019-01-12T19:25:06.526Z,20.40
2019-01-12T19:25:06.899Z,20.39
2019-01-12T19:25:07.267Z,20.40
2019-01-12T19:25:07.640Z,20.40
2019-01-12T19:25:08.009Z,20.40
2019-01-12T19:25:08.380Z,20.39
2019-01-12T19:25:08.750Z,20.40
2019-01-12T19:25:09.123Z,20.40
2019-01-12T19:25:09.495Z,20.40
2019-01-12T19:25:09.865Z,20.40
2019-01-12T19:25:10.236Z,20.40
2019-01-12T19:25:10.609Z,20.40
2019-01-12T19:25:10.977Z,20.40
2019-01-12T19:25:11.348Z,20.41
2019-01-12T19:25:11.720Z,20.40
2019-01-12T19:25:12.091Z,20.40
2019-01-12T19:25:12.462Z,20.40
2019-01-12T19:25:12.832Z,20.40
2019-01-12T19:25:13.205Z,20.40
2019-01-12T19:25:13.574Z,20.41
2019-01-12T19:25:13.946Z,20.40
2019-01-12T19:25:14.311Z,20.41
2019-01-12T19:25:14.682Z,20.41
2019-01-12T19:25:15.106Z,20.42
2019-01-12T19:25:15.426Z,20.40
2019-01-12T19:25:15.792Z,20.41
2019-01-12T19:25:16.168Z,20.41
2019-01-12T19:25:16.533Z,20.41
2019-01-12T19:25:16.905Z,20.41
2019-01-12T19:25:17.279Z,20.41
2019-01-12T19:25:17.648Z,20.42
2019-01-12T19:25:18.016Z,20.41
2019-01-12T19:25:18.385Z,20.41
2019-01-12T19:25:18.761Z,20.41
2019-01-12T19:25:19.129Z,20.41
2019-01-12T19:25:19.515Z,20.41
2019-01-12T19:25:19.869Z,20.41
2019-01-12T19:25:20.241Z,20.41
2019-01-12T19:25:20.613Z,20.41
2019-01-12T19:25:20.987Z,20.41
2019-01-12T19:25:21.357Z,20.41
2019-01-12T19:25:21.727Z,20.42
2019-01-12T19:25:22.102Z,20.42
2019-01-12T19:25:22.465Z,20.41
2019-01-12T19:25:22.848Z,20.41
2019-01-12T19:25:23.217Z,20.41
2019-01-12T19:25:23.588Z,20.42
2019-01-12T19:25:23.958Z,20.42
2019-01-12T19:25:24.331Z,20.42
2019-01-12T19:25:24.701Z,20.42
2019-01-12T19:25:25.075Z,20.42
2019-01-12T19:25:25.441Z,20.41
2019-01-12T19:25:25.813Z,20.41
2019-01-12T19:25:26.186Z,20.42
2019-01-12T19:25:26.554Z,20.41
2019-01-12T19:25:26.924Z,20.42
2019-01-12T19:25:27.292Z,20.41
2019-01-12T19:25:27.666Z,20.42
2019-01-12T19:25:28.043Z,20.42
2019-01-12T19:25:28.407Z,20.41
2019-01-12T19:25:28.783Z,20.41
2019-01-12T19:25:29.150Z,20.42
2019-01-12T19:25:29.518Z,20.41
2019-01-12T19:25:29.891Z,20.42
2019-01-12T19:25:30.261Z,20.42
2019-01-12T19:25:30.628Z,20.42
2019-01-12T19:25:30.996Z,20.41
2019-01-12T19:25:31.370Z,20.41
2019-01-12T19:25:31.792Z,20.42
2019-01-12T19:25:32.157Z,20.42
2019-01-12T19:25:32.527Z,20.42
2019-01-12T19:25:32.899Z,20.41
2019-01-12T19:25:33.270Z,20.41
2019-01-12T19:25:33.638Z,20.42
2019-01-12T19:25:34.014Z,20.42
2019-01-12T19:25:34.381Z,20.42
2019-01-12T19:25:34.752Z,20.41
2019-01-12T19:25:35.120Z,20.42
2019-01-12T19:25:35.490Z,20.43
2019-01-12T19:25:35.862Z,20.42
2019-01-12T19:25:36.237Z,20.42
2019-01-12T19:25:36.610Z,20.43
2019-01-12T19:25:36.985Z,20.42
2019-01-12T19:25:37.349Z,20.42
2019-01-12T19:25:37.721Z,20.42
2019-01-12T19:25:38.090Z,20.42
2019-01-12T19:25:38.462Z,20.42
2019-01-12T19:25:38.830Z,20.41
2019-01-12T19:25:39.205Z,20.42
2019-01-12T19:25:39.572Z,20.42
2019-01-12T19:25:39.940Z,20.43
2019-01-12T19:25:40.318Z,20.42
2019-01-12T19:25:40.689Z,20.43
2019-01-12T19:25:41.059Z,20.42
2019-01-12T19:25:41.428Z,20.43
2019-01-12T19:25:41.800Z,20.42
2019-01-12T19:25:42.170Z,20.42
2019-01-12T19:25:42.543Z,20.43
2019-01-12T19:25:42.932Z,20.42
2019-01-12T19:25:43.293Z,20.42
2019-01-12T19:25:43.657Z,20.42
2019-01-12T19:25:44.039Z,20.43
2019-01-12T19:25:44.399Z,20.42
2019-01-12T19:25:44.790Z,20.42
2019-01-12T19:25:45.143Z,20.42
2019-01-12T19:25:45.516Z,20.42
2019-01-12T19:25:45.885Z,20.43
2019-01-12T19:25:46.257Z,20.43
2019-01-12T19:25:46.625Z,20.42
2019-01-12T19:25:46.995Z,20.43
2019-01-12T19:25:47.368Z,20.43
2019-01-12T19:25:47.732Z,20.42
2019-01-12T19:25:48.105Z,20.42
2019-01-12T19:25:48.501Z,20.43
2019-01-12T19:25:48.873Z,20.43
2019-01-12T19:25:49.247Z,20.43
2019-01-12T19:25:49.613Z,20.43
2019-01-12T19:25:49.984Z,20.43
2019-01-12T19:25:50.362Z,20.43
2019-01-12T19:25:50.727Z,20.43
2019-01-12T19:25:51.096Z,20.43
2019-01-12T19:25:51.464Z,20.43
2019-01-12T19:25:51.835Z,20.43
2019-01-12T19:25:52.205Z,20.43
2019-01-12T19:25:52.579Z,20.43
2019-01-12T19:25:52.952Z,20.43
2019-01-12T19:25:53.326Z,20.43
2019-01-12T19:25:53.692Z,20.42
2019-01-12T19:25:54.064Z,20.43
2019-01-12T19:25:54.434Z,20.43
2019-01-12T19:25:54.805Z,20.42
2019-01-12T19:25:55.172Z,20.43
2019-01-12T19:25:55.543Z,20.43
2019-01-12T19:25:55.916Z,20.42
2019-01-12T19:25:56.290Z,20.42
2019-01-12T19:25:56.663Z,20.43
2019-01-12T19:25:57.049Z,20.43
2019-01-12T19:25:57.406Z,20.43
2019-01-12T19:25:57.774Z,20.42
2019-01-12T19:25:58.146Z,20.43
2019-01-12T19:25:58.521Z,20.43
2019-01-12T19:25:58.888Z,20.43
2019-01-12T19:25:59.261Z,20.42
2019-01-12T19:25:59.630Z,20.42
2019-01-12T19:26:00.000Z,20.42
2019-01-12T19:26:00.370Z,20.43
2019-01-12T19:26:00.741Z,20.42
2019-01-12T19:26:01.113Z,20.43
2019-01-12T19:26:01.481Z,20.43
2019-01-12T19:26:01.854Z,20.43
2019-01-12T19:26:02.224Z,20.43
2019-01-12T19:26:02.597Z,20.43
2019-01-12T19:26:02.968Z,20.43
2019-01-12T19:26:03.343Z,20.43
2019-01-12T19:26:03.711Z,20.42
2019-01-12T19:26:04.079Z,20.42
2019-01-12T19:26:04.444Z,20.43
2019-01-12T19:26:04.820Z,20.43
2019-01-12T19:26:05.186Z,20.42
2019-01-12T19:26:05.558Z,20.43
2019-01-12T19:26:05.929Z,20.43
2019-01-12T19:26:06.303Z,20.43
2019-01-12T19:26:06.672Z,20.42
2019-01-12T19:26:07.043Z,20.43
2019-01-12T19:26:07.414Z,20.43
2019-01-12T19:26:07.787Z,20.43
2019-01-12T19:26:08.155Z,20.42
2019-01-12T19:26:08.525Z,20.43
2019-01-12T19:26:08.899Z,20.43
2019-01-12T19:26:09.269Z,20.43
2019-01-12T19:26:09.637Z,20.43
2019-01-12T19:26:10.008Z,20.43
2019-01-12T19:26:10.379Z,20.42
2019-01-12T19:26:10.750Z,20.43
2019-01-12T19:26:11.120Z,20.43
2019-01-12T19:26:11.493Z,20.43
2019-01-12T19:26:11.864Z,20.43
2019-01-12T19:26:12.235Z,20.43
2019-01-12T19:26:12.608Z,20.43
2019-01-12T19:26:12.972Z,20.43
2019-01-12T19:26:13.343Z,20.43
2019-01-12T19:26:13.714Z,20.43
2019-01-12T19:26:14.085Z,20.43
2019-01-12T19:26:14.455Z,20.43
2019-01-12T19:26:14.825Z,20.43
2019-01-12T19:26:15.193Z,20.42
2019-01-12T19:26:15.567Z,20.43
2019-01-12T19:26:15.934Z,20.43
2019-01-12T19:26:16.304Z,20.43
2019-01-12T19:26:16.677Z,20.43
2019-01-12T19:26:17.045Z,20.43
2019-01-12T19:26:17.415Z,20.44
2019-01-12T19:26:17.785Z,20.43
2019-01-12T19:26:18.156Z,20.42
2019-01-12T19:26:18.528Z,20.43
2019-01-12T19:26:18.896Z,20.43
2019-01-12T19:26:19.268Z,20.43
2019-01-12T19:26:19.637Z,20.43
2019-01-12T19:26:20.006Z,20.43
2019-01-12T19:26:20.380Z,20.43
2019-01-12T19:26:20.747Z,20.43
2019-01-12T19:26:21.116Z,20.42
2019-01-12T19:26:21.491Z,20.43
2019-01-12T19:26:21.860Z,20.42
2019-01-12T19:26:22.237Z,20.42
2019-01-12T19:26:22.607Z,20.43
2019-01-12T19:26:22.975Z,20.43
2019-01-12T19:26:23.347Z,20.43
2019-01-12T19:26:23.720Z,20.42
2019-01-12T19:26:24.086Z,20.42
2019-01-12T19:26:24.461Z,20.43
2019-01-12T19:26:24.825Z,20.42
2019-01-12T19:26:25.197Z,20.42
2019-01-12T19:26:25.565Z,20.43
2019-01-12T19:26:25.940Z,20.43
2019-01-12T19:26:26.308Z,20.42
2019-01-12T19:26:26.681Z,20.42
2019-01-12T19:26:27.050Z,20.43
2019-01-12T19:26:27.421Z,20.42
2019-01-12T19:26:27.787Z,20.42
2019-01-12T19:26:28.161Z,20.42
2019-01-12T19:26:28.532Z,20.43
2019-01-12T19:26:28.905Z,20.42
2019-01-12T19:26:29.301Z,20.42
2019-01-12T19:26:29.644Z,20.42
2019-01-12T19:26:30.015Z,20.42
2019-01-12T19:26:30.384Z,20.42
2019-01-12T19:26:30.758Z,20.42
2019-01-12T19:26:31.127Z,20.42
2019-01-12T19:26:31.509Z,20.42
2019-01-12T19:26:31.927Z,20.42
2019-01-12T19:26:32.297Z,20.42
2019-01-12T19:26:32.669Z,20.43
2019-01-12T19:26:33.037Z,20.43
2019-01-12T19:26:33.407Z,20.43
2019-01-12T19:26:33.773Z,20.43
2019-01-12T19:26:34.142Z,20.42
2019-01-12T19:26:34.513Z,20.42
2019-01-12T19:26:34.885Z,20.42
2019-01-12T19:26:35.256Z,20.43
2019-01-12T19:26:35.631Z,20.42
2019-01-12T19:26:36.001Z,20.42
2019-01-12T19:26:36.368Z,20.42
2019-01-12T19:26:36.743Z,20.42
2019-01-12T19:26:37.110Z,20.41
2019-01-12T19:26:37.493Z,20.42
2019-01-12T19:26:37.861Z,20.41
2019-01-12T19:26:38.235Z,20.42
2019-01-12T19:26:38.605Z,20.42
2019-01-12T19:26:38.974Z,20.42
2019-01-12T19:26:39.346Z,20.42
2019-01-12T19:26:39.712Z,20.43
2019-01-12T19:26:40.105Z,20.41